sensor_id;sensor_type;location;lat;lon;timestamp;P1;durP1;ratioP1;P2;durP2;ratioP2
10947;SDS011;5526;42.070;24.752;2023-12-22T00:00:38;2.72;;;1.58;;
10947;SDS011;5526;42.070;24.752;2023-12-22T00:03:05;4.88;;;3.50;;
10947;SDS011;5526;42.070;24.752;2023-12-22T00:05:32;3.42;;;2.50;;
10947;SDS011;5526;42.070;24.752;2023-12-22T00:07:59;3.33;;;1.90;;
10947;SDS011;5526;42.070;24.752;2023-12-22T00:10:28;2.28;;;2.08;;
10947;SDS011;5526;42.070;24.752;2023-12-22T00:12:55;2.20;;;2.00;;
10947;SDS011;5526;42.070;24.752;2023-12-22T00:15:22;1.80;;;1.60;;
10947;SDS011;5526;42.070;24.752;2023-12-22T00:17:49;2.03;;;1.58;;
10947;SDS011;5526;42.070;24.752;2023-12-22T00:20:16;1.45;;;1.35;;
10947;SDS011;5526;42.070;24.752;2023-12-22T00:22:44;1.65;;;1.50;;
10947;SDS011;5526;42.070;24.752;2023-12-22T00:25:11;2.78;;;2.55;;
10947;SDS011;5526;42.070;24.752;2023-12-22T00:27:39;5.18;;;4.10;;
10947;SDS011;5526;42.070;24.752;2023-12-22T00:30:07;5.40;;;4.88;;
10947;SDS011;5526;42.070;24.752;2023-12-22T00:32:35;4.93;;;4.43;;
10947;SDS011;5526;42.070;24.752;2023-12-22T00:35:02;6.05;;;4.63;;
10947;SDS011;5526;42.070;24.752;2023-12-22T00:37:30;6.00;;;4.80;;
10947;SDS011;5526;42.070;24.752;2023-12-22T00:39:57;5.72;;;4.72;;
10947;SDS011;5526;42.070;24.752;2023-12-22T00:42:24;6.68;;;5.25;;
10947;SDS011;5526;42.070;24.752;2023-12-22T00:44:52;7.75;;;6.55;;
10947;SDS011;5526;42.070;24.752;2023-12-22T00:47:20;7.80;;;6.13;;
10947;SDS011;5526;42.070;24.752;2023-12-22T00:49:47;7.03;;;6.32;;
10947;SDS011;5526;42.070;24.752;2023-12-22T00:52:14;7.43;;;6.70;;
10947;SDS011;5526;42.070;24.752;2023-12-22T00:54:41;7.95;;;6.45;;
10947;SDS011;5526;42.070;24.752;2023-12-22T00:57:08;8.35;;;6.80;;
10947;SDS011;5526;42.070;24.752;2023-12-22T00:59:35;7.82;;;6.68;;
10947;SDS011;5526;42.070;24.752;2023-12-22T01:02:03;7.00;;;6.30;;
10947;SDS011;5526;42.070;24.752;2023-12-22T01:04:30;8.40;;;7.30;;
10947;SDS011;5526;42.070;24.752;2023-12-22T01:06:57;8.00;;;7.10;;
10947;SDS011;5526;42.070;24.752;2023-12-22T01:09:25;10.68;;;8.30;;
10947;SDS011;5526;42.070;24.752;2023-12-22T01:11:52;8.82;;;7.93;;
10947;SDS011;5526;42.070;24.752;2023-12-22T01:14:19;9.85;;;8.02;;
10947;SDS011;5526;42.070;24.752;2023-12-22T01:16:46;9.55;;;8.50;;
10947;SDS011;5526;42.070;24.752;2023-12-22T01:19:14;10.98;;;9.85;;
10947;SDS011;5526;42.070;24.752;2023-12-22T01:21:41;15.65;;;13.38;;
10947;SDS011;5526;42.070;24.752;2023-12-22T01:24:08;11.98;;;10.13;;
10947;SDS011;5526;42.070;24.752;2023-12-22T01:26:35;11.63;;;9.63;;
10947;SDS011;5526;42.070;24.752;2023-12-22T01:29:02;12.88;;;11.27;;
10947;SDS011;5526;42.070;24.752;2023-12-22T01:31:30;12.05;;;10.73;;
10947;SDS011;5526;42.070;24.752;2023-12-22T01:33:57;15.55;;;12.60;;
10947;SDS011;5526;42.070;24.752;2023-12-22T01:36:25;11.75;;;10.48;;
10947;SDS011;5526;42.070;24.752;2023-12-22T01:38:52;9.70;;;8.40;;
10947;SDS011;5526;42.070;24.752;2023-12-22T01:41:19;9.85;;;8.55;;
10947;SDS011;5526;42.070;24.752;2023-12-22T01:43:46;11.73;;;9.00;;
10947;SDS011;5526;42.070;24.752;2023-12-22T01:46:13;11.55;;;10.25;;
10947;SDS011;5526;42.070;24.752;2023-12-22T01:48:41;13.05;;;10.93;;
10947;SDS011;5526;42.070;24.752;2023-12-22T01:51:08;29.88;;;20.90;;
10947;SDS011;5526;42.070;24.752;2023-12-22T01:53:37;30.55;;;19.20;;
10947;SDS011;5526;42.070;24.752;2023-12-22T01:56:04;33.90;;;22.58;;
10947;SDS011;5526;42.070;24.752;2023-12-22T01:58:32;41.40;;;27.60;;
10947;SDS011;5526;42.070;24.752;2023-12-22T02:01:02;25.70;;;18.13;;
10947;SDS011;5526;42.070;24.752;2023-12-22T02:03:31;12.95;;;11.15;;
10947;SDS011;5526;42.070;24.752;2023-12-22T02:05:58;9.13;;;8.23;;
10947;SDS011;5526;42.070;24.752;2023-12-22T02:08:25;9.40;;;8.40;;
10947;SDS011;5526;42.070;24.752;2023-12-22T02:10:55;10.23;;;9.13;;
10947;SDS011;5526;42.070;24.752;2023-12-22T02:13:22;9.15;;;8.18;;
10947;SDS011;5526;42.070;24.752;2023-12-22T02:15:51;8.50;;;7.55;;
10947;SDS011;5526;42.070;24.752;2023-12-22T02:18:26;9.90;;;7.47;;
10947;SDS011;5526;42.070;24.752;2023-12-22T02:21:00;8.15;;;6.60;;
10947;SDS011;5526;42.070;24.752;2023-12-22T02:23:28;7.75;;;6.88;;
10947;SDS011;5526;42.070;24.752;2023-12-22T02:25:57;6.93;;;6.25;;
10947;SDS011;5526;42.070;24.752;2023-12-22T02:28:33;6.55;;;5.85;;
10947;SDS011;5526;42.070;24.752;2023-12-22T02:31:04;7.05;;;6.00;;
10947;SDS011;5526;42.070;24.752;2023-12-22T02:33:43;7.13;;;6.20;;
10947;SDS011;5526;42.070;24.752;2023-12-22T02:36:13;7.85;;;7.05;;
10947;SDS011;5526;42.070;24.752;2023-12-22T02:38:44;7.10;;;6.40;;
10947;SDS011;5526;42.070;24.752;2023-12-22T02:41:12;7.30;;;6.60;;
10947;SDS011;5526;42.070;24.752;2023-12-22T02:43:40;8.20;;;7.18;;
10947;SDS011;5526;42.070;24.752;2023-12-22T02:46:12;9.50;;;7.10;;
10947;SDS011;5526;42.070;24.752;2023-12-22T02:48:40;7.93;;;7.13;;
10947;SDS011;5526;42.070;24.752;2023-12-22T02:51:07;8.10;;;7.10;;
10947;SDS011;5526;42.070;24.752;2023-12-22T02:53:34;7.38;;;6.63;;
10947;SDS011;5526;42.070;24.752;2023-12-22T02:56:03;8.13;;;6.70;;
10947;SDS011;5526;42.070;24.752;2023-12-22T02:58:30;8.18;;;6.63;;
10947;SDS011;5526;42.070;24.752;2023-12-22T03:00:57;7.82;;;6.85;;
10947;SDS011;5526;42.070;24.752;2023-12-22T03:03:24;7.45;;;6.13;;
10947;SDS011;5526;42.070;24.752;2023-12-22T03:05:51;7.85;;;6.60;;
10947;SDS011;5526;42.070;24.752;2023-12-22T03:08:18;7.57;;;6.72;;
10947;SDS011;5526;42.070;24.752;2023-12-22T03:10:45;8.43;;;6.55;;
10947;SDS011;5526;42.070;24.752;2023-12-22T03:13:14;7.80;;;6.75;;
10947;SDS011;5526;42.070;24.752;2023-12-22T03:15:41;7.57;;;6.53;;
10947;SDS011;5526;42.070;24.752;2023-12-22T03:18:08;7.90;;;6.50;;
10947;SDS011;5526;42.070;24.752;2023-12-22T03:20:35;9.43;;;7.80;;
10947;SDS011;5526;42.070;24.752;2023-12-22T03:23:02;8.73;;;7.70;;
10947;SDS011;5526;42.070;24.752;2023-12-22T03:25:30;9.07;;;8.10;;
10947;SDS011;5526;42.070;24.752;2023-12-22T03:27:57;11.45;;;7.95;;
10947;SDS011;5526;42.070;24.752;2023-12-22T03:30:25;8.85;;;7.78;;
10947;SDS011;5526;42.070;24.752;2023-12-22T03:32:52;8.13;;;7.28;;
10947;SDS011;5526;42.070;24.752;2023-12-22T03:35:18;7.75;;;6.95;;
10947;SDS011;5526;42.070;24.752;2023-12-22T03:37:46;7.45;;;6.75;;
10947;SDS011;5526;42.070;24.752;2023-12-22T03:40:13;8.40;;;6.50;;
10947;SDS011;5526;42.070;24.752;2023-12-22T03:42:40;11.27;;;6.90;;
10947;SDS011;5526;42.070;24.752;2023-12-22T03:45:07;8.57;;;6.30;;
10947;SDS011;5526;42.070;24.752;2023-12-22T03:47:36;8.48;;;6.47;;
10947;SDS011;5526;42.070;24.752;2023-12-22T03:50:03;13.40;;;10.43;;
10947;SDS011;5526;42.070;24.752;2023-12-22T03:52:31;13.57;;;9.80;;
10947;SDS011;5526;42.070;24.752;2023-12-22T03:54:58;10.48;;;8.88;;
10947;SDS011;5526;42.070;24.752;2023-12-22T03:57:25;7.25;;;6.45;;
10947;SDS011;5526;42.070;24.752;2023-12-22T03:59:52;7.40;;;6.07;;
10947;SDS011;5526;42.070;24.752;2023-12-22T04:02:19;8.50;;;7.28;;
10947;SDS011;5526;42.070;24.752;2023-12-22T04:04:47;9.55;;;7.85;;
10947;SDS011;5526;42.070;24.752;2023-12-22T04:07:14;11.40;;;8.80;;
10947;SDS011;5526;42.070;24.752;2023-12-22T04:09:42;10.27;;;8.27;;
10947;SDS011;5526;42.070;24.752;2023-12-22T04:12:09;9.73;;;8.18;;
10947;SDS011;5526;42.070;24.752;2023-12-22T04:14:36;9.55;;;8.57;;
10947;SDS011;5526;42.070;24.752;2023-12-22T04:17:03;10.30;;;8.88;;
10947;SDS011;5526;42.070;24.752;2023-12-22T04:19:30;7.13;;;5.75;;
10947;SDS011;5526;42.070;24.752;2023-12-22T04:21:59;6.85;;;5.47;;
10947;SDS011;5526;42.070;24.752;2023-12-22T04:24:26;6.50;;;5.80;;
10947;SDS011;5526;42.070;24.752;2023-12-22T04:26:53;7.82;;;6.55;;
10947;SDS011;5526;42.070;24.752;2023-12-22T04:29:20;9.93;;;8.27;;
10947;SDS011;5526;42.070;24.752;2023-12-22T04:31:47;11.82;;;9.82;;
10947;SDS011;5526;42.070;24.752;2023-12-22T04:34:14;13.05;;;10.40;;
10947;SDS011;5526;42.070;24.752;2023-12-22T04:36:41;32.90;;;20.75;;
10947;SDS011;5526;42.070;24.752;2023-12-22T04:39:10;23.15;;;14.02;;
10947;SDS011;5526;42.070;24.752;2023-12-22T04:41:37;13.13;;;11.60;;
10947;SDS011;5526;42.070;24.752;2023-12-22T04:44:04;15.32;;;11.68;;
10947;SDS011;5526;42.070;24.752;2023-12-22T04:46:31;12.13;;;10.68;;
10947;SDS011;5526;42.070;24.752;2023-12-22T04:48:58;13.48;;;10.43;;
10947;SDS011;5526;42.070;24.752;2023-12-22T04:51:27;13.05;;;10.02;;
10947;SDS011;5526;42.070;24.752;2023-12-22T04:53:54;11.50;;;8.85;;
10947;SDS011;5526;42.070;24.752;2023-12-22T04:56:23;11.07;;;8.65;;
10947;SDS011;5526;42.070;24.752;2023-12-22T04:58:50;10.23;;;7.65;;
10947;SDS011;5526;42.070;24.752;2023-12-22T05:01:17;10.27;;;7.18;;
10947;SDS011;5526;42.070;24.752;2023-12-22T05:03:44;8.90;;;7.47;;
10947;SDS011;5526;42.070;24.752;2023-12-22T05:06:11;7.70;;;5.78;;
10947;SDS011;5526;42.070;24.752;2023-12-22T05:08:39;7.05;;;5.75;;
10947;SDS011;5526;42.070;24.752;2023-12-22T05:11:06;5.82;;;5.10;;
10947;SDS011;5526;42.070;24.752;2023-12-22T05:13:34;7.45;;;6.53;;
10947;SDS011;5526;42.070;24.752;2023-12-22T05:16:01;9.02;;;7.70;;
10947;SDS011;5526;42.070;24.752;2023-12-22T05:18:30;7.45;;;6.35;;
10947;SDS011;5526;42.070;24.752;2023-12-22T05:20:57;17.17;;;14.57;;
10947;SDS011;5526;42.070;24.752;2023-12-22T05:23:24;7.28;;;6.10;;
10947;SDS011;5526;42.070;24.752;2023-12-22T05:25:51;8.77;;;7.20;;
10947;SDS011;5526;42.070;24.752;2023-12-22T05:28:18;15.90;;;12.95;;
10947;SDS011;5526;42.070;24.752;2023-12-22T05:30:47;14.82;;;12.30;;
10947;SDS011;5526;42.070;24.752;2023-12-22T05:33:14;13.02;;;10.95;;
10947;SDS011;5526;42.070;24.752;2023-12-22T05:35:41;24.45;;;21.33;;
10947;SDS011;5526;42.070;24.752;2023-12-22T05:38:08;15.93;;;13.07;;
10947;SDS011;5526;42.070;24.752;2023-12-22T05:40:35;13.40;;;11.15;;
10947;SDS011;5526;42.070;24.752;2023-12-22T05:43:02;12.13;;;10.57;;
10947;SDS011;5526;42.070;24.752;2023-12-22T05:45:29;10.98;;;9.43;;
10947;SDS011;5526;42.070;24.752;2023-12-22T05:47:58;14.95;;;12.25;;
10947;SDS011;5526;42.070;24.752;2023-12-22T05:50:25;14.95;;;13.07;;
10947;SDS011;5526;42.070;24.752;2023-12-22T05:52:52;15.80;;;13.85;;
10947;SDS011;5526;42.070;24.752;2023-12-22T05:55:19;16.73;;;13.60;;
10947;SDS011;5526;42.070;24.752;2023-12-22T05:57:46;17.73;;;14.25;;
10947;SDS011;5526;42.070;24.752;2023-12-22T06:00:14;18.95;;;16.08;;
10947;SDS011;5526;42.070;24.752;2023-12-22T06:02:42;19.55;;;15.85;;
10947;SDS011;5526;42.070;24.752;2023-12-22T06:05:11;16.88;;;15.00;;
10947;SDS011;5526;42.070;24.752;2023-12-22T06:07:38;15.52;;;13.05;;
10947;SDS011;5526;42.070;24.752;2023-12-22T06:10:06;14.00;;;12.52;;
10947;SDS011;5526;42.070;24.752;2023-12-22T06:12:34;18.27;;;12.68;;
10947;SDS011;5526;42.070;24.752;2023-12-22T06:15:02;15.15;;;12.60;;
10947;SDS011;5526;42.070;24.752;2023-12-22T06:17:29;13.52;;;12.00;;
10947;SDS011;5526;42.070;24.752;2023-12-22T06:19:56;14.48;;;12.48;;
10947;SDS011;5526;42.070;24.752;2023-12-22T06:22:25;15.02;;;13.43;;
10947;SDS011;5526;42.070;24.752;2023-12-22T06:24:52;16.58;;;13.52;;
10947;SDS011;5526;42.070;24.752;2023-12-22T06:27:19;20.40;;;16.95;;
10947;SDS011;5526;42.070;24.752;2023-12-22T06:29:46;22.48;;;18.15;;
10947;SDS011;5526;42.070;24.752;2023-12-22T06:32:13;24.48;;;18.05;;
10947;SDS011;5526;42.070;24.752;2023-12-22T06:34:42;23.70;;;18.05;;
10947;SDS011;5526;42.070;24.752;2023-12-22T06:37:09;25.00;;;17.48;;
10947;SDS011;5526;42.070;24.752;2023-12-22T06:39:38;24.75;;;18.67;;
10947;SDS011;5526;42.070;24.752;2023-12-22T06:42:05;45.35;;;29.95;;
10947;SDS011;5526;42.070;24.752;2023-12-22T06:44:36;34.97;;;24.67;;
10947;SDS011;5526;42.070;24.752;2023-12-22T06:47:03;29.67;;;21.20;;
10947;SDS011;5526;42.070;24.752;2023-12-22T06:49:31;36.55;;;25.90;;
10947;SDS011;5526;42.070;24.752;2023-12-22T06:51:58;46.55;;;31.25;;
10947;SDS011;5526;42.070;24.752;2023-12-22T06:54:25;41.08;;;30.45;;
10947;SDS011;5526;42.070;24.752;2023-12-22T06:56:53;35.67;;;25.63;;
10947;SDS011;5526;42.070;24.752;2023-12-22T06:59:20;36.83;;;26.85;;
10947;SDS011;5526;42.070;24.752;2023-12-22T07:01:47;24.73;;;20.55;;
10947;SDS011;5526;42.070;24.752;2023-12-22T07:04:15;32.67;;;22.85;;
10947;SDS011;5526;42.070;24.752;2023-12-22T07:06:42;22.52;;;17.50;;
10947;SDS011;5526;42.070;24.752;2023-12-22T07:09:27;18.38;;;15.90;;
10947;SDS011;5526;42.070;24.752;2023-12-22T07:11:57;16.98;;;14.07;;
10947;SDS011;5526;42.070;24.752;2023-12-22T07:14:24;15.93;;;14.25;;
10947;SDS011;5526;42.070;24.752;2023-12-22T07:16:52;16.30;;;14.38;;
10947;SDS011;5526;42.070;24.752;2023-12-22T07:19:19;18.27;;;16.00;;
10947;SDS011;5526;42.070;24.752;2023-12-22T07:21:46;14.95;;;11.98;;
10947;SDS011;5526;42.070;24.752;2023-12-22T07:24:13;13.25;;;11.93;;
10947;SDS011;5526;42.070;24.752;2023-12-22T07:26:41;14.18;;;12.48;;
10947;SDS011;5526;42.070;24.752;2023-12-22T07:29:11;24.35;;;18.02;;
10947;SDS011;5526;42.070;24.752;2023-12-22T07:31:38;32.40;;;21.85;;
10947;SDS011;5526;42.070;24.752;2023-12-22T07:34:05;23.75;;;16.05;;
10947;SDS011;5526;42.070;24.752;2023-12-22T07:36:32;17.63;;;12.82;;
10947;SDS011;5526;42.070;24.752;2023-12-22T07:38:59;15.35;;;12.30;;
10947;SDS011;5526;42.070;24.752;2023-12-22T07:41:26;24.08;;;18.00;;
10947;SDS011;5526;42.070;24.752;2023-12-22T07:43:53;13.38;;;11.88;;
10947;SDS011;5526;42.070;24.752;2023-12-22T07:46:22;14.52;;;11.45;;
10947;SDS011;5526;42.070;24.752;2023-12-22T07:48:49;13.23;;;10.82;;
10947;SDS011;5526;42.070;24.752;2023-12-22T07:51:16;14.55;;;11.63;;
10947;SDS011;5526;42.070;24.752;2023-12-22T07:53:43;11.35;;;10.05;;
10947;SDS011;5526;42.070;24.752;2023-12-22T07:56:10;13.40;;;9.38;;
10947;SDS011;5526;42.070;24.752;2023-12-22T07:58:38;12.75;;;10.00;;
10947;SDS011;5526;42.070;24.752;2023-12-22T08:01:05;13.80;;;11.40;;
10947;SDS011;5526;42.070;24.752;2023-12-22T08:03:34;15.88;;;12.38;;
10947;SDS011;5526;42.070;24.752;2023-12-22T08:06:02;19.63;;;13.55;;
10947;SDS011;5526;42.070;24.752;2023-12-22T08:08:30;24.95;;;13.88;;
10947;SDS011;5526;42.070;24.752;2023-12-22T08:10:58;20.83;;;14.88;;
10947;SDS011;5526;42.070;24.752;2023-12-22T08:13:25;15.40;;;13.75;;
10947;SDS011;5526;42.070;24.752;2023-12-22T08:15:53;20.13;;;13.48;;
10947;SDS011;5526;42.070;24.752;2023-12-22T08:18:20;19.58;;;14.45;;
10947;SDS011;5526;42.070;24.752;2023-12-22T08:20:48;20.15;;;16.52;;
10947;SDS011;5526;42.070;24.752;2023-12-22T08:23:15;17.70;;;14.68;;
10947;SDS011;5526;42.070;24.752;2023-12-22T08:25:42;16.95;;;12.68;;
10947;SDS011;5526;42.070;24.752;2023-12-22T08:28:09;15.45;;;12.43;;
10947;SDS011;5526;42.070;24.752;2023-12-22T08:30:37;17.77;;;15.07;;
10947;SDS011;5526;42.070;24.752;2023-12-22T08:33:05;17.75;;;14.18;;
10947;SDS011;5526;42.070;24.752;2023-12-22T08:35:32;13.90;;;11.68;;
10947;SDS011;5526;42.070;24.752;2023-12-22T08:38:01;13.05;;;11.32;;
10947;SDS011;5526;42.070;24.752;2023-12-22T08:40:28;13.95;;;11.20;;
10947;SDS011;5526;42.070;24.752;2023-12-22T08:42:55;11.95;;;10.73;;
10947;SDS011;5526;42.070;24.752;2023-12-22T08:45:25;13.57;;;10.48;;
10947;SDS011;5526;42.070;24.752;2023-12-22T08:47:54;13.88;;;11.02;;
10947;SDS011;5526;42.070;24.752;2023-12-22T08:50:21;12.60;;;10.90;;
10947;SDS011;5526;42.070;24.752;2023-12-22T08:52:48;16.95;;;11.80;;
10947;SDS011;5526;42.070;24.752;2023-12-22T08:55:17;14.93;;;12.40;;
10947;SDS011;5526;42.070;24.752;2023-12-22T08:57:44;15.05;;;12.32;;
10947;SDS011;5526;42.070;24.752;2023-12-22T09:00:11;13.23;;;11.75;;
10947;SDS011;5526;42.070;24.752;2023-12-22T09:02:40;15.30;;;11.98;;
10947;SDS011;5526;42.070;24.752;2023-12-22T09:05:07;14.45;;;11.57;;
10947;SDS011;5526;42.070;24.752;2023-12-22T09:07:34;14.10;;;12.65;;
10947;SDS011;5526;42.070;24.752;2023-12-22T09:10:02;14.35;;;11.70;;
10947;SDS011;5526;42.070;24.752;2023-12-22T09:12:31;16.70;;;12.90;;
10947;SDS011;5526;42.070;24.752;2023-12-22T09:14:58;22.15;;;15.10;;
10947;SDS011;5526;42.070;24.752;2023-12-22T09:17:26;20.58;;;15.48;;
10947;SDS011;5526;42.070;24.752;2023-12-22T09:19:53;18.15;;;14.30;;
10947;SDS011;5526;42.070;24.752;2023-12-22T09:22:21;17.95;;;14.55;;
10947;SDS011;5526;42.070;24.752;2023-12-22T09:24:48;20.30;;;14.55;;
10947;SDS011;5526;42.070;24.752;2023-12-22T09:27:15;16.98;;;12.82;;
10947;SDS011;5526;42.070;24.752;2023-12-22T09:29:44;15.48;;;12.57;;
10947;SDS011;5526;42.070;24.752;2023-12-22T09:32:11;17.67;;;14.98;;
10947;SDS011;5526;42.070;24.752;2023-12-22T09:34:38;20.85;;;16.58;;
10947;SDS011;5526;42.070;24.752;2023-12-22T09:37:05;31.63;;;23.88;;
10947;SDS011;5526;42.070;24.752;2023-12-22T09:39:32;21.02;;;17.23;;
10947;SDS011;5526;42.070;24.752;2023-12-22T09:41:59;24.65;;;19.88;;
10947;SDS011;5526;42.070;24.752;2023-12-22T09:44:28;21.95;;;16.27;;
10947;SDS011;5526;42.070;24.752;2023-12-22T09:47:00;20.73;;;15.95;;
10947;SDS011;5526;42.070;24.752;2023-12-22T09:49:31;18.52;;;15.65;;
10947;SDS011;5526;42.070;24.752;2023-12-22T09:52:00;20.90;;;15.45;;
10947;SDS011;5526;42.070;24.752;2023-12-22T09:54:28;18.33;;;13.80;;
10947;SDS011;5526;42.070;24.752;2023-12-22T09:56:57;16.52;;;14.18;;
10947;SDS011;5526;42.070;24.752;2023-12-22T09:59:25;19.63;;;14.57;;
10947;SDS011;5526;42.070;24.752;2023-12-22T10:01:55;28.90;;;19.92;;
10947;SDS011;5526;42.070;24.752;2023-12-22T10:04:24;31.30;;;21.88;;
10947;SDS011;5526;42.070;24.752;2023-12-22T10:06:51;32.95;;;25.02;;
10947;SDS011;5526;42.070;24.752;2023-12-22T10:09:20;29.60;;;23.10;;
10947;SDS011;5526;42.070;24.752;2023-12-22T10:11:48;42.17;;;30.63;;
10947;SDS011;5526;42.070;24.752;2023-12-22T10:14:18;35.03;;;26.17;;
10947;SDS011;5526;42.070;24.752;2023-12-22T10:16:48;30.58;;;22.05;;
10947;SDS011;5526;42.070;24.752;2023-12-22T10:19:15;32.85;;;23.45;;
10947;SDS011;5526;42.070;24.752;2023-12-22T10:21:44;27.52;;;21.33;;
10947;SDS011;5526;42.070;24.752;2023-12-22T10:27:12;11.38;;;10.00;;
10947;SDS011;5526;42.070;24.752;2023-12-22T10:29:42;14.65;;;12.40;;
10947;SDS011;5526;42.070;24.752;2023-12-22T10:32:09;13.05;;;10.65;;
10947;SDS011;5526;42.070;24.752;2023-12-22T10:34:36;11.85;;;9.35;;
10947;SDS011;5526;42.070;24.752;2023-12-22T10:37:04;12.02;;;9.10;;
10947;SDS011;5526;42.070;24.752;2023-12-22T10:39:32;9.75;;;8.70;;
10947;SDS011;5526;42.070;24.752;2023-12-22T10:41:59;9.20;;;8.25;;
10947;SDS011;5526;42.070;24.752;2023-12-22T10:44:27;6.55;;;5.85;;
10947;SDS011;5526;42.070;24.752;2023-12-22T10:46:55;5.57;;;5.07;;
10947;SDS011;5526;42.070;24.752;2023-12-22T10:49:23;4.03;;;3.72;;
10947;SDS011;5526;42.070;24.752;2023-12-22T10:51:51;2.70;;;2.47;;
10947;SDS011;5526;42.070;24.752;2023-12-22T10:54:20;2.13;;;1.80;;
10947;SDS011;5526;42.070;24.752;2023-12-22T10:56:47;1.73;;;1.23;;
10947;SDS011;5526;42.070;24.752;2023-12-22T10:59:16;1.50;;;1.40;;
10947;SDS011;5526;42.070;24.752;2023-12-22T11:01:44;1.63;;;1.52;;
10947;SDS011;5526;42.070;24.752;2023-12-22T11:04:18;6.53;;;5.85;;
10947;SDS011;5526;42.070;24.752;2023-12-22T11:06:49;8.10;;;7.13;;
10947;SDS011;5526;42.070;24.752;2023-12-22T11:09:21;7.50;;;6.70;;
10947;SDS011;5526;42.070;24.752;2023-12-22T11:11:50;2.42;;;2.22;;
10947;SDS011;5526;42.070;24.752;2023-12-22T11:14:18;1.77;;;1.20;;
10947;SDS011;5526;42.070;24.752;2023-12-22T11:16:46;1.90;;;1.40;;
10947;SDS011;5526;42.070;24.752;2023-12-22T11:19:15;1.42;;;1.08;;
10947;SDS011;5526;42.070;24.752;2023-12-22T11:21:42;1.15;;;0.90;;
10947;SDS011;5526;42.070;24.752;2023-12-22T11:24:12;0.70;;;0.70;;
10947;SDS011;5526;42.070;24.752;2023-12-22T11:26:42;0.60;;;0.60;;
10947;SDS011;5526;42.070;24.752;2023-12-22T11:29:12;0.63;;;0.63;;
10947;SDS011;5526;42.070;24.752;2023-12-22T11:31:43;0.70;;;0.70;;
10947;SDS011;5526;42.070;24.752;2023-12-22T11:34:13;1.10;;;1.10;;
10947;SDS011;5526;42.070;24.752;2023-12-22T11:36:43;0.70;;;0.70;;
10947;SDS011;5526;42.070;24.752;2023-12-22T11:39:12;0.70;;;0.70;;
10947;SDS011;5526;42.070;24.752;2023-12-22T11:41:39;0.20;;;0.20;;
10947;SDS011;5526;42.070;24.752;2023-12-22T11:44:10;0.43;;;0.43;;
10947;SDS011;5526;42.070;24.752;2023-12-22T11:46:37;0.50;;;0.50;;
10947;SDS011;5526;42.070;24.752;2023-12-22T11:49:04;0.60;;;0.57;;
10947;SDS011;5526;42.070;24.752;2023-12-22T11:51:32;0.88;;;0.88;;
10947;SDS011;5526;42.070;24.752;2023-12-22T11:54:01;0.70;;;0.70;;
10947;SDS011;5526;42.070;24.752;2023-12-22T11:56:28;0.73;;;0.73;;
10947;SDS011;5526;42.070;24.752;2023-12-22T11:58:57;0.30;;;0.20;;
10947;SDS011;5526;42.070;24.752;2023-12-22T12:01:26;1.92;;;1.27;;
10947;SDS011;5526;42.070;24.752;2023-12-22T12:03:57;1.47;;;1.37;;
10947;SDS011;5526;42.070;24.752;2023-12-22T12:06:33;1.20;;;1.20;;
10947;SDS011;5526;42.070;24.752;2023-12-22T12:09:03;0.80;;;0.80;;
10947;SDS011;5526;42.070;24.752;2023-12-22T12:14:41;1.85;;;1.17;;
10947;SDS011;5526;42.070;24.752;2023-12-22T12:17:09;0.80;;;0.60;;
10947;SDS011;5526;42.070;24.752;2023-12-22T12:19:37;3.78;;;1.52;;
10947;SDS011;5526;42.070;24.752;2023-12-22T12:22:07;1.02;;;0.90;;
10947;SDS011;5526;42.070;24.752;2023-12-22T12:24:35;1.10;;;1.10;;
10947;SDS011;5526;42.070;24.752;2023-12-22T12:27:03;1.00;;;1.00;;
10947;SDS011;5526;42.070;24.752;2023-12-22T12:29:31;0.63;;;0.60;;
10947;SDS011;5526;42.070;24.752;2023-12-22T12:32:04;2.10;;;1.75;;
10947;SDS011;5526;42.070;24.752;2023-12-22T12:34:34;2.05;;;1.83;;
10947;SDS011;5526;42.070;24.752;2023-12-22T12:37:02;1.27;;;1.17;;
10947;SDS011;5526;42.070;24.752;2023-12-22T12:39:30;1.15;;;1.05;;
10947;SDS011;5526;42.070;24.752;2023-12-22T12:41:59;0.82;;;0.82;;
10947;SDS011;5526;42.070;24.752;2023-12-22T12:44:26;1.52;;;0.73;;
10947;SDS011;5526;42.070;24.752;2023-12-22T12:46:57;0.90;;;0.68;;
10947;SDS011;5526;42.070;24.752;2023-12-22T12:49:26;0.70;;;0.70;;
10947;SDS011;5526;42.070;24.752;2023-12-22T12:51:56;2.53;;;2.00;;
10947;SDS011;5526;42.070;24.752;2023-12-22T12:54:23;0.80;;;0.80;;
10947;SDS011;5526;42.070;24.752;2023-12-22T12:56:50;0.80;;;0.70;;
10947;SDS011;5526;42.070;24.752;2023-12-22T12:59:17;1.20;;;0.90;;
10947;SDS011;5526;42.070;24.752;2023-12-22T13:01:45;0.80;;;0.80;;
10947;SDS011;5526;42.070;24.752;2023-12-22T13:04:13;0.80;;;0.70;;
10947;SDS011;5526;42.070;24.752;2023-12-22T13:06:46;1.17;;;1.17;;
10947;SDS011;5526;42.070;24.752;2023-12-22T13:09:13;1.50;;;1.40;;
10947;SDS011;5526;42.070;24.752;2023-12-22T13:11:41;1.00;;;1.00;;
10947;SDS011;5526;42.070;24.752;2023-12-22T13:14:09;1.88;;;1.10;;
10947;SDS011;5526;42.070;24.752;2023-12-22T13:16:36;1.52;;;1.42;;
10947;SDS011;5526;42.070;24.752;2023-12-22T13:19:05;1.70;;;1.45;;
10947;SDS011;5526;42.070;24.752;2023-12-22T13:21:33;1.10;;;1.10;;
10947;SDS011;5526;42.070;24.752;2023-12-22T13:24:09;1.58;;;1.48;;
10947;SDS011;5526;42.070;24.752;2023-12-22T13:26:37;1.60;;;1.50;;
10947;SDS011;5526;42.070;24.752;2023-12-22T13:29:04;1.92;;;1.80;;
10947;SDS011;5526;42.070;24.752;2023-12-22T13:31:31;1.92;;;1.65;;
10947;SDS011;5526;42.070;24.752;2023-12-22T13:33:59;1.27;;;1.23;;
10947;SDS011;5526;42.070;24.752;2023-12-22T13:36:26;1.50;;;1.40;;
10947;SDS011;5526;42.070;24.752;2023-12-22T13:38:53;1.67;;;1.58;;
10947;SDS011;5526;42.070;24.752;2023-12-22T13:41:22;1.90;;;1.80;;
10947;SDS011;5526;42.070;24.752;2023-12-22T13:43:49;1.30;;;1.20;;
10947;SDS011;5526;42.070;24.752;2023-12-22T13:46:17;1.20;;;1.10;;
10947;SDS011;5526;42.070;24.752;2023-12-22T13:48:44;0.95;;;0.95;;
10947;SDS011;5526;42.070;24.752;2023-12-22T13:51:11;1.02;;;1.00;;
10947;SDS011;5526;42.070;24.752;2023-12-22T13:53:48;1.40;;;1.30;;
10947;SDS011;5526;42.070;24.752;2023-12-22T13:56:16;1.30;;;1.20;;
10947;SDS011;5526;42.070;24.752;2023-12-22T13:58:44;1.60;;;1.50;;
10947;SDS011;5526;42.070;24.752;2023-12-22T14:01:12;2.35;;;1.77;;
10947;SDS011;5526;42.070;24.752;2023-12-22T14:03:41;1.98;;;1.60;;
10947;SDS011;5526;42.070;24.752;2023-12-22T14:06:09;1.58;;;1.48;;
10947;SDS011;5526;42.070;24.752;2023-12-22T14:08:38;1.40;;;1.30;;
10947;SDS011;5526;42.070;24.752;2023-12-22T14:11:07;2.03;;;1.92;;
10947;SDS011;5526;42.070;24.752;2023-12-22T14:13:34;1.90;;;1.80;;
10947;SDS011;5526;42.070;24.752;2023-12-22T14:16:06;2.08;;;1.95;;
10947;SDS011;5526;42.070;24.752;2023-12-22T14:18:33;2.15;;;1.98;;
10947;SDS011;5526;42.070;24.752;2023-12-22T14:21:00;2.10;;;1.90;;
10947;SDS011;5526;42.070;24.752;2023-12-22T14:23:29;6.50;;;5.22;;
10947;SDS011;5526;42.070;24.752;2023-12-22T14:25:56;2.28;;;2.08;;
10947;SDS011;5526;42.070;24.752;2023-12-22T14:28:23;2.08;;;1.98;;
10947;SDS011;5526;42.070;24.752;2023-12-22T14:30:51;1.52;;;1.42;;
10947;SDS011;5526;42.070;24.752;2023-12-22T14:33:19;1.92;;;1.83;;
10947;SDS011;5526;42.070;24.752;2023-12-22T14:35:46;3.25;;;2.88;;
10947;SDS011;5526;42.070;24.752;2023-12-22T14:38:14;3.15;;;2.95;;
10947;SDS011;5526;42.070;24.752;2023-12-22T14:40:41;2.75;;;2.45;;
10947;SDS011;5526;42.070;24.752;2023-12-22T14:43:08;2.15;;;2.05;;
10947;SDS011;5526;42.070;24.752;2023-12-22T14:45:35;1.60;;;1.50;;